sensor_id;sensor_type;location;lat;lon;timestamp;P1;durP1;ratioP1;P2;durP2;ratioP2
1378;SDS011;683;48.738;9.226;2023-05-20T00:01:37;6.37;;;4.50;;
1378;SDS011;683;48.738;9.226;2023-05-20T00:04:05;4.73;;;4.33;;
1378;SDS011;683;48.738;9.226;2023-05-20T00:06:32;6.07;;;4.23;;
1378;SDS011;683;48.738;9.226;2023-05-20T00:09:00;5.00;;;4.60;;
1378;SDS011;683;48.738;9.226;2023-05-20T00:11:30;6.77;;;4.70;;
1378;SDS011;683;48.738;9.226;2023-05-20T00:13:57;8.83;;;5.97;;
1378;SDS011;683;48.738;9.226;2023-05-20T00:16:25;4.80;;;4.37;;
1378;SDS011;683;48.738;9.226;2023-05-20T00:18:52;6.30;;;4.90;;
1378;SDS011;683;48.738;9.226;2023-05-20T00:21:21;5.73;;;5.20;;
1378;SDS011;683;48.738;9.226;2023-05-20T00:23:48;7.80;;;5.40;;
1378;SDS011;683;48.738;9.226;2023-05-20T00:26:16;7.10;;;4.90;;
1378;SDS011;683;48.738;9.226;2023-05-20T00:28:51;7.53;;;6.17;;
1378;SDS011;683;48.738;9.226;2023-05-20T00:31:19;6.97;;;6.23;;
1378;SDS011;683;48.738;9.226;2023-05-20T00:33:46;7.40;;;5.80;;
1378;SDS011;683;48.738;9.226;2023-05-20T00:36:14;10.23;;;5.77;;
1378;SDS011;683;48.738;9.226;2023-05-20T00:38:41;7.13;;;6.43;;
1378;SDS011;683;48.738;9.226;2023-05-20T00:41:09;8.80;;;6.93;;
1378;SDS011;683;48.738;9.226;2023-05-20T00:43:36;7.50;;;6.50;;
1378;SDS011;683;48.738;9.226;2023-05-20T00:46:05;6.17;;;5.63;;
1378;SDS011;683;48.738;9.226;2023-05-20T00:48:35;5.97;;;5.47;;
1378;SDS011;683;48.738;9.226;2023-05-20T00:51:06;10.77;;;6.77;;
1378;SDS011;683;48.738;9.226;2023-05-20T00:53:34;6.77;;;6.17;;
1378;SDS011;683;48.738;9.226;2023-05-20T00:56:02;7.13;;;6.07;;
1378;SDS011;683;48.738;9.226;2023-05-20T00:58:31;6.17;;;5.60;;
1378;SDS011;683;48.738;9.226;2023-05-20T01:00:58;6.13;;;5.60;;
1378;SDS011;683;48.738;9.226;2023-05-20T01:03:27;7.10;;;6.40;;
1378;SDS011;683;48.738;9.226;2023-05-20T01:05:55;12.47;;;9.77;;
1378;SDS011;683;48.738;9.226;2023-05-20T01:08:23;9.03;;;7.50;;
1378;SDS011;683;48.738;9.226;2023-05-20T01:10:54;7.40;;;5.53;;
1378;SDS011;683;48.738;9.226;2023-05-20T01:13:26;5.53;;;5.13;;
1378;SDS011;683;48.738;9.226;2023-05-20T01:15:59;6.00;;;5.40;;
1378;SDS011;683;48.738;9.226;2023-05-20T01:18:30;6.23;;;5.73;;
1378;SDS011;683;48.738;9.226;2023-05-20T01:20:59;6.27;;;5.67;;
1378;SDS011;683;48.738;9.226;2023-05-20T01:23:36;6.67;;;5.83;;
1378;SDS011;683;48.738;9.226;2023-05-20T01:26:07;8.10;;;6.27;;
1378;SDS011;683;48.738;9.226;2023-05-20T01:28:38;5.97;;;5.40;;
1378;SDS011;683;48.738;9.226;2023-05-20T01:31:10;5.37;;;4.90;;
1378;SDS011;683;48.738;9.226;2023-05-20T01:33:41;5.77;;;5.27;;
1378;SDS011;683;48.738;9.226;2023-05-20T01:36:09;7.23;;;6.23;;
1378;SDS011;683;48.738;9.226;2023-05-20T01:38:39;5.87;;;5.33;;
1378;SDS011;683;48.738;9.226;2023-05-20T01:41:07;6.13;;;5.53;;
1378;SDS011;683;48.738;9.226;2023-05-20T01:43:35;5.47;;;5.07;;
1378;SDS011;683;48.738;9.226;2023-05-20T01:46:04;6.10;;;5.53;;
1378;SDS011;683;48.738;9.226;2023-05-20T01:48:32;7.13;;;6.40;;
1378;SDS011;683;48.738;9.226;2023-05-20T01:51:00;7.07;;;6.27;;
1378;SDS011;683;48.738;9.226;2023-05-20T01:53:27;6.07;;;5.53;;
1378;SDS011;683;48.738;9.226;2023-05-20T01:55:56;8.70;;;5.73;;
1378;SDS011;683;48.738;9.226;2023-05-20T01:58:25;6.20;;;5.57;;
1378;SDS011;683;48.738;9.226;2023-05-20T02:00:52;5.80;;;5.30;;
1378;SDS011;683;48.738;9.226;2023-05-20T02:03:20;6.17;;;5.63;;
1378;SDS011;683;48.738;9.226;2023-05-20T02:05:47;5.57;;;5.07;;
1378;SDS011;683;48.738;9.226;2023-05-20T02:08:15;5.50;;;4.90;;
1378;SDS011;683;48.738;9.226;2023-05-20T02:10:42;6.80;;;5.93;;
1378;SDS011;683;48.738;9.226;2023-05-20T02:13:12;6.77;;;6.10;;
1378;SDS011;683;48.738;9.226;2023-05-20T02:15:40;5.70;;;5.00;;
1378;SDS011;683;48.738;9.226;2023-05-20T02:18:07;6.83;;;6.13;;
1378;SDS011;683;48.738;9.226;2023-05-20T02:20:36;6.37;;;5.47;;
1378;SDS011;683;48.738;9.226;2023-05-20T02:23:04;8.37;;;6.50;;
1378;SDS011;683;48.738;9.226;2023-05-20T02:25:33;6.87;;;6.27;;
1378;SDS011;683;48.738;9.226;2023-05-20T02:28:01;7.73;;;6.93;;
1378;SDS011;683;48.738;9.226;2023-05-20T02:30:31;6.67;;;6.07;;
1378;SDS011;683;48.738;9.226;2023-05-20T02:32:59;6.73;;;6.03;;
1378;SDS011;683;48.738;9.226;2023-05-20T02:35:26;8.20;;;6.10;;
1378;SDS011;683;48.738;9.226;2023-05-20T02:37:53;8.13;;;7.37;;
1378;SDS011;683;48.738;9.226;2023-05-20T02:40:21;7.33;;;6.47;;
1378;SDS011;683;48.738;9.226;2023-05-20T02:42:48;6.60;;;6.03;;
1378;SDS011;683;48.738;9.226;2023-05-20T02:45:15;8.53;;;7.43;;
1378;SDS011;683;48.738;9.226;2023-05-20T02:47:45;7.93;;;7.23;;
1378;SDS011;683;48.738;9.226;2023-05-20T02:50:13;7.83;;;6.97;;
1378;SDS011;683;48.738;9.226;2023-05-20T02:52:40;7.00;;;6.33;;
1378;SDS011;683;48.738;9.226;2023-05-20T02:55:08;7.10;;;6.40;;
1378;SDS011;683;48.738;9.226;2023-05-20T02:57:35;6.73;;;6.13;;
1378;SDS011;683;48.738;9.226;2023-05-20T03:00:05;6.30;;;5.60;;
1378;SDS011;683;48.738;9.226;2023-05-20T03:02:35;8.73;;;6.97;;
1378;SDS011;683;48.738;9.226;2023-05-20T03:05:05;6.20;;;5.60;;
1378;SDS011;683;48.738;9.226;2023-05-20T03:07:35;7.27;;;6.50;;
1378;SDS011;683;48.738;9.226;2023-05-20T03:10:05;6.07;;;5.67;;
1378;SDS011;683;48.738;9.226;2023-05-20T03:12:33;6.43;;;5.93;;
1378;SDS011;683;48.738;9.226;2023-05-20T03:15:01;8.10;;;7.30;;
1378;SDS011;683;48.738;9.226;2023-05-20T03:17:28;7.60;;;6.87;;
1378;SDS011;683;48.738;9.226;2023-05-20T03:19:55;6.63;;;6.13;;
1378;SDS011;683;48.738;9.226;2023-05-20T03:22:25;7.10;;;6.40;;
1378;SDS011;683;48.738;9.226;2023-05-20T03:24:52;7.57;;;6.60;;
1378;SDS011;683;48.738;9.226;2023-05-20T03:27:20;6.10;;;5.70;;
1378;SDS011;683;48.738;9.226;2023-05-20T03:29:47;8.03;;;6.40;;
1378;SDS011;683;48.738;9.226;2023-05-20T03:32:15;7.87;;;6.80;;
1378;SDS011;683;48.738;9.226;2023-05-20T03:34:43;7.60;;;7.00;;
1378;SDS011;683;48.738;9.226;2023-05-20T03:37:10;8.23;;;7.43;;
1378;SDS011;683;48.738;9.226;2023-05-20T03:39:39;8.17;;;7.43;;
1378;SDS011;683;48.738;9.226;2023-05-20T03:42:07;6.70;;;6.20;;
1378;SDS011;683;48.738;9.226;2023-05-20T03:44:34;9.20;;;8.07;;
1378;SDS011;683;48.738;9.226;2023-05-20T03:47:02;7.10;;;6.50;;
1378;SDS011;683;48.738;9.226;2023-05-20T03:49:30;6.97;;;6.37;;
1378;SDS011;683;48.738;9.226;2023-05-20T03:51:57;8.20;;;7.33;;
1378;SDS011;683;48.738;9.226;2023-05-20T03:54:25;8.93;;;8.03;;
1378;SDS011;683;48.738;9.226;2023-05-20T03:56:54;7.60;;;7.00;;
1378;SDS011;683;48.738;9.226;2023-05-20T03:59:21;7.53;;;6.83;;
1378;SDS011;683;48.738;9.226;2023-05-20T04:01:49;8.03;;;7.43;;
1378;SDS011;683;48.738;9.226;2023-05-20T04:04:17;9.00;;;8.13;;
1378;SDS011;683;48.738;9.226;2023-05-20T04:06:44;8.03;;;7.37;;
1378;SDS011;683;48.738;9.226;2023-05-20T04:09:11;7.67;;;7.07;;
1378;SDS011;683;48.738;9.226;2023-05-20T04:11:39;7.40;;;6.70;;
1378;SDS011;683;48.738;9.226;2023-05-20T04:14:07;7.37;;;6.77;;
1378;SDS011;683;48.738;9.226;2023-05-20T04:16:36;7.17;;;6.47;;
1378;SDS011;683;48.738;9.226;2023-05-20T04:19:03;7.23;;;6.57;;
1378;SDS011;683;48.738;9.226;2023-05-20T04:21:31;7.63;;;6.40;;
1378;SDS011;683;48.738;9.226;2023-05-20T04:23:59;7.37;;;6.67;;
1378;SDS011;683;48.738;9.226;2023-05-20T04:26:26;6.77;;;6.17;;
1378;SDS011;683;48.738;9.226;2023-05-20T04:28:54;7.53;;;6.80;;
1378;SDS011;683;48.738;9.226;2023-05-20T04:31:25;9.30;;;7.20;;
1378;SDS011;683;48.738;9.226;2023-05-20T04:33:52;6.63;;;6.13;;
1378;SDS011;683;48.738;9.226;2023-05-20T04:36:21;7.27;;;6.67;;
1378;SDS011;683;48.738;9.226;2023-05-20T04:38:53;7.93;;;7.10;;
1378;SDS011;683;48.738;9.226;2023-05-20T04:41:21;6.90;;;6.23;;
1378;SDS011;683;48.738;9.226;2023-05-20T04:43:49;7.10;;;6.60;;
1378;SDS011;683;48.738;9.226;2023-05-20T04:46:17;6.80;;;6.30;;
1378;SDS011;683;48.738;9.226;2023-05-20T04:48:46;7.33;;;6.63;;
1378;SDS011;683;48.738;9.226;2023-05-20T04:51:13;7.93;;;7.10;;
1378;SDS011;683;48.738;9.226;2023-05-20T04:53:42;7.03;;;6.50;;
1378;SDS011;683;48.738;9.226;2023-05-20T04:56:10;7.03;;;6.33;;
1378;SDS011;683;48.738;9.226;2023-05-20T04:58:40;7.70;;;6.73;;
1378;SDS011;683;48.738;9.226;2023-05-20T05:01:07;8.20;;;7.20;;
1378;SDS011;683;48.738;9.226;2023-05-20T05:03:34;8.10;;;7.07;;
1378;SDS011;683;48.738;9.226;2023-05-20T05:06:03;6.83;;;6.23;;
1378;SDS011;683;48.738;9.226;2023-05-20T05:08:31;7.83;;;6.03;;
1378;SDS011;683;48.738;9.226;2023-05-20T05:10:58;7.30;;;6.60;;
1378;SDS011;683;48.738;9.226;2023-05-20T05:13:26;7.30;;;6.70;;
1378;SDS011;683;48.738;9.226;2023-05-20T05:15:57;6.50;;;6.00;;
1378;SDS011;683;48.738;9.226;2023-05-20T05:18:26;7.00;;;6.40;;
1378;SDS011;683;48.738;9.226;2023-05-20T05:21:00;6.73;;;5.83;;
1378;SDS011;683;48.738;9.226;2023-05-20T05:23:29;6.80;;;6.20;;
1378;SDS011;683;48.738;9.226;2023-05-20T05:25:57;6.43;;;5.87;;
1378;SDS011;683;48.738;9.226;2023-05-20T05:28:26;6.93;;;6.30;;
1378;SDS011;683;48.738;9.226;2023-05-20T05:30:53;7.10;;;6.50;;
1378;SDS011;683;48.738;9.226;2023-05-20T05:33:21;6.73;;;6.13;;
1378;SDS011;683;48.738;9.226;2023-05-20T05:35:49;6.37;;;5.77;;
1378;SDS011;683;48.738;9.226;2023-05-20T05:38:16;6.13;;;5.53;;
1378;SDS011;683;48.738;9.226;2023-05-20T05:40:45;6.47;;;5.93;;
1378;SDS011;683;48.738;9.226;2023-05-20T05:43:14;6.87;;;6.27;;
1378;SDS011;683;48.738;9.226;2023-05-20T05:45:43;6.43;;;5.87;;
1378;SDS011;683;48.738;9.226;2023-05-20T05:48:11;6.53;;;6.03;;
1378;SDS011;683;48.738;9.226;2023-05-20T05:50:42;5.77;;;5.27;;
1378;SDS011;683;48.738;9.226;2023-05-20T05:53:12;6.80;;;6.10;;
1378;SDS011;683;48.738;9.226;2023-05-20T05:55:42;6.13;;;5.63;;
1378;SDS011;683;48.738;9.226;2023-05-20T05:58:12;6.47;;;5.87;;
1378;SDS011;683;48.738;9.226;2023-05-20T06:00:40;7.30;;;6.73;;
1378;SDS011;683;48.738;9.226;2023-05-20T06:03:08;6.13;;;5.63;;
1378;SDS011;683;48.738;9.226;2023-05-20T06:05:37;6.53;;;5.93;;
1378;SDS011;683;48.738;9.226;2023-05-20T06:08:04;6.30;;;5.70;;
1378;SDS011;683;48.738;9.226;2023-05-20T06:10:33;6.43;;;5.83;;
1378;SDS011;683;48.738;9.226;2023-05-20T06:13:02;6.77;;;6.10;;
1378;SDS011;683;48.738;9.226;2023-05-20T06:15:30;6.67;;;6.17;;
1378;SDS011;683;48.738;9.226;2023-05-20T06:17:58;6.10;;;5.47;;
1378;SDS011;683;48.738;9.226;2023-05-20T06:20:26;6.50;;;5.90;;
1378;SDS011;683;48.738;9.226;2023-05-20T06:22:53;5.17;;;4.50;;
1378;SDS011;683;48.738;9.226;2023-05-20T06:25:23;6.50;;;5.90;;
1378;SDS011;683;48.738;9.226;2023-05-20T06:27:51;6.07;;;5.57;;
1378;SDS011;683;48.738;9.226;2023-05-20T06:30:20;6.23;;;5.73;;
1378;SDS011;683;48.738;9.226;2023-05-20T06:32:47;6.17;;;5.70;;
1378;SDS011;683;48.738;9.226;2023-05-20T06:35:15;6.63;;;6.03;;
1378;SDS011;683;48.738;9.226;2023-05-20T06:37:43;6.57;;;5.77;;
1378;SDS011;683;48.738;9.226;2023-05-20T06:40:11;6.27;;;5.77;;
1378;SDS011;683;48.738;9.226;2023-05-20T06:42:39;6.53;;;5.93;;
1378;SDS011;683;48.738;9.226;2023-05-20T06:45:07;5.20;;;4.77;;
1378;SDS011;683;48.738;9.226;2023-05-20T06:47:48;6.20;;;5.67;;
1378;SDS011;683;48.738;9.226;2023-05-20T06:50:18;5.67;;;5.23;;
1378;SDS011;683;48.738;9.226;2023-05-20T06:52:46;7.40;;;6.80;;
1378;SDS011;683;48.738;9.226;2023-05-20T06:55:14;6.53;;;5.80;;
1378;SDS011;683;48.738;9.226;2023-05-20T06:57:42;7.47;;;6.83;;
1378;SDS011;683;48.738;9.226;2023-05-20T07:00:11;6.47;;;5.87;;
1378;SDS011;683;48.738;9.226;2023-05-20T07:02:40;6.80;;;6.23;;
1378;SDS011;683;48.738;9.226;2023-05-20T07:05:10;5.83;;;5.33;;
1378;SDS011;683;48.738;9.226;2023-05-20T07:07:38;6.43;;;5.87;;
1378;SDS011;683;48.738;9.226;2023-05-20T07:10:06;7.17;;;6.57;;
1378;SDS011;683;48.738;9.226;2023-05-20T07:12:34;8.33;;;7.63;;
1378;SDS011;683;48.738;9.226;2023-05-20T07:15:01;7.33;;;6.73;;
1378;SDS011;683;48.738;9.226;2023-05-20T07:17:30;6.90;;;6.30;;
1378;SDS011;683;48.738;9.226;2023-05-20T07:19:57;6.90;;;6.30;;
1378;SDS011;683;48.738;9.226;2023-05-20T07:22:26;7.17;;;6.47;;
1378;SDS011;683;48.738;9.226;2023-05-20T07:25:07;6.53;;;5.90;;
1378;SDS011;683;48.738;9.226;2023-05-20T07:27:36;7.37;;;6.77;;
1378;SDS011;683;48.738;9.226;2023-05-20T07:30:04;7.80;;;7.10;;
1378;SDS011;683;48.738;9.226;2023-05-20T07:32:34;8.10;;;6.70;;
1378;SDS011;683;48.738;9.226;2023-05-20T07:35:01;8.20;;;7.13;;
1378;SDS011;683;48.738;9.226;2023-05-20T07:37:30;7.67;;;7.07;;
1378;SDS011;683;48.738;9.226;2023-05-20T07:39:58;9.57;;;6.30;;
1378;SDS011;683;48.738;9.226;2023-05-20T07:42:26;7.60;;;6.90;;
1378;SDS011;683;48.738;9.226;2023-05-20T07:44:57;7.30;;;6.60;;
1378;SDS011;683;48.738;9.226;2023-05-20T07:47:25;7.63;;;7.03;;
1378;SDS011;683;48.738;9.226;2023-05-20T07:49:52;6.40;;;5.80;;
1378;SDS011;683;48.738;9.226;2023-05-20T07:52:20;7.77;;;7.13;;
1378;SDS011;683;48.738;9.226;2023-05-20T07:54:49;7.73;;;6.93;;
1378;SDS011;683;48.738;9.226;2023-05-20T07:57:17;7.23;;;6.67;;
1378;SDS011;683;48.738;9.226;2023-05-20T07:59:44;7.73;;;7.13;;
1378;SDS011;683;48.738;9.226;2023-05-20T08:02:12;6.70;;;6.10;;
1378;SDS011;683;48.738;9.226;2023-05-20T08:04:40;8.50;;;7.60;;
1378;SDS011;683;48.738;9.226;2023-05-20T08:07:08;6.30;;;5.70;;
1378;SDS011;683;48.738;9.226;2023-05-20T08:09:52;8.13;;;7.33;;
1378;SDS011;683;48.738;9.226;2023-05-20T08:12:20;6.03;;;5.53;;
1378;SDS011;683;48.738;9.226;2023-05-20T08:14:48;6.93;;;6.43;;
1378;SDS011;683;48.738;9.226;2023-05-20T08:17:15;6.50;;;6.00;;
1378;SDS011;683;48.738;9.226;2023-05-20T08:19:43;6.73;;;6.23;;
1378;SDS011;683;48.738;9.226;2023-05-20T08:22:12;7.53;;;6.90;;
1378;SDS011;683;48.738;9.226;2023-05-20T08:24:40;6.63;;;6.13;;
1378;SDS011;683;48.738;9.226;2023-05-20T08:27:10;7.43;;;6.73;;
1378;SDS011;683;48.738;9.226;2023-05-20T08:29:37;8.43;;;6.70;;
1378;SDS011;683;48.738;9.226;2023-05-20T08:32:05;8.00;;;7.20;;
1378;SDS011;683;48.738;9.226;2023-05-20T08:34:33;6.37;;;5.87;;
1378;SDS011;683;48.738;9.226;2023-05-20T08:37:01;6.10;;;5.60;;
1378;SDS011;683;48.738;9.226;2023-05-20T08:39:28;6.90;;;6.10;;
1378;SDS011;683;48.738;9.226;2023-05-20T08:41:56;6.27;;;5.37;;
1378;SDS011;683;48.738;9.226;2023-05-20T08:44:25;6.97;;;6.37;;
1378;SDS011;683;48.738;9.226;2023-05-20T08:46:54;5.73;;;5.00;;
1378;SDS011;683;48.738;9.226;2023-05-20T08:49:22;7.30;;;6.60;;
1378;SDS011;683;48.738;9.226;2023-05-20T08:51:49;6.60;;;6.10;;
1378;SDS011;683;48.738;9.226;2023-05-20T08:54:17;7.00;;;6.40;;
1378;SDS011;683;48.738;9.226;2023-05-20T08:56:48;6.97;;;5.50;;
1378;SDS011;683;48.738;9.226;2023-05-20T08:59:18;6.00;;;5.50;;
1378;SDS011;683;48.738;9.226;2023-05-20T09:01:47;6.50;;;6.00;;
1378;SDS011;683;48.738;9.226;2023-05-20T09:04:15;6.80;;;6.10;;
1378;SDS011;683;48.738;9.226;2023-05-20T09:06:43;5.30;;;4.90;;
1378;SDS011;683;48.738;9.226;2023-05-20T09:09:11;6.23;;;5.73;;
1378;SDS011;683;48.738;9.226;2023-05-20T09:11:39;5.83;;;5.33;;
1378;SDS011;683;48.738;9.226;2023-05-20T09:14:07;6.80;;;6.23;;
1378;SDS011;683;48.738;9.226;2023-05-20T09:16:34;12.97;;;7.30;;
1378;SDS011;683;48.738;9.226;2023-05-20T09:19:05;6.57;;;6.00;;
1378;SDS011;683;48.738;9.226;2023-05-20T09:21:34;8.40;;;7.40;;
1378;SDS011;683;48.738;9.226;2023-05-20T09:24:03;6.97;;;6.37;;
1378;SDS011;683;48.738;9.226;2023-05-20T09:26:31;5.90;;;5.40;;
1378;SDS011;683;48.738;9.226;2023-05-20T09:28:58;6.03;;;5.60;;
1378;SDS011;683;48.738;9.226;2023-05-20T09:31:25;6.63;;;6.07;;
1378;SDS011;683;48.738;9.226;2023-05-20T09:33:53;7.17;;;6.53;;
1378;SDS011;683;48.738;9.226;2023-05-20T09:36:22;7.17;;;6.57;;
1378;SDS011;683;48.738;9.226;2023-05-20T09:38:53;6.33;;;5.80;;
1378;SDS011;683;48.738;9.226;2023-05-20T09:41:24;5.70;;;5.30;;
1378;SDS011;683;48.738;9.226;2023-05-20T09:43:59;5.80;;;5.40;;
1378;SDS011;683;48.738;9.226;2023-05-20T09:46:28;5.50;;;5.00;;
1378;SDS011;683;48.738;9.226;2023-05-20T09:48:57;5.27;;;4.90;;
1378;SDS011;683;48.738;9.226;2023-05-20T09:51:26;6.17;;;5.57;;
1378;SDS011;683;48.738;9.226;2023-05-20T09:53:56;7.53;;;6.73;;
1378;SDS011;683;48.738;9.226;2023-05-20T09:56:24;6.10;;;5.70;;
1378;SDS011;683;48.738;9.226;2023-05-20T09:58:52;6.60;;;5.93;;
1378;SDS011;683;48.738;9.226;2023-05-20T10:01:22;5.70;;;5.30;;
1378;SDS011;683;48.738;9.226;2023-05-20T10:03:51;7.50;;;6.90;;
1378;SDS011;683;48.738;9.226;2023-05-20T10:06:36;6.80;;;6.20;;
1378;SDS011;683;48.738;9.226;2023-05-20T10:09:21;6.43;;;5.83;;
1378;SDS011;683;48.738;9.226;2023-05-20T10:12:01;6.90;;;6.40;;
1378;SDS011;683;48.738;9.226;2023-05-20T10:14:42;6.73;;;6.13;;
1378;SDS011;683;48.738;9.226;2023-05-20T10:17:20;8.30;;;6.47;;
1378;SDS011;683;48.738;9.226;2023-05-20T10:19:58;7.73;;;7.03;;
1378;SDS011;683;48.738;9.226;2023-05-20T10:22:28;6.17;;;5.57;;
1378;SDS011;683;48.738;9.226;2023-05-20T10:24:57;6.50;;;5.90;;
1378;SDS011;683;48.738;9.226;2023-05-20T10:27:26;9.73;;;6.23;;
1378;SDS011;683;48.738;9.226;2023-05-20T10:29:54;6.97;;;6.37;;
1378;SDS011;683;48.738;9.226;2023-05-20T10:32:23;5.57;;;5.17;;
1378;SDS011;683;48.738;9.226;2023-05-20T10:34:50;6.47;;;6.00;;
1378;SDS011;683;48.738;9.226;2023-05-20T10:37:22;7.33;;;6.80;;
1378;SDS011;683;48.738;9.226;2023-05-20T10:40:01;7.37;;;6.83;;
1378;SDS011;683;48.738;9.226;2023-05-20T10:42:29;6.20;;;5.70;;
1378;SDS011;683;48.738;9.226;2023-05-20T10:44:57;5.87;;;5.47;;
1378;SDS011;683;48.738;9.226;2023-05-20T10:47:24;5.93;;;5.43;;
1378;SDS011;683;48.738;9.226;2023-05-20T10:49:51;7.43;;;6.67;;
1378;SDS011;683;48.738;9.226;2023-05-20T10:52:19;6.30;;;5.80;;
1378;SDS011;683;48.738;9.226;2023-05-20T10:54:47;6.30;;;5.70;;
1378;SDS011;683;48.738;9.226;2023-05-20T10:57:22;6.33;;;5.37;;
1378;SDS011;683;48.738;9.226;2023-05-20T10:59:51;6.60;;;6.10;;
1378;SDS011;683;48.738;9.226;2023-05-20T11:02:19;5.73;;;5.23;;
1378;SDS011;683;48.738;9.226;2023-05-20T11:04:51;6.03;;;5.50;;
1378;SDS011;683;48.738;9.226;2023-05-20T11:07:25;6.40;;;5.93;;
1378;SDS011;683;48.738;9.226;2023-05-20T11:09:54;5.57;;;5.17;;
1378;SDS011;683;48.738;9.226;2023-05-20T11:12:22;6.60;;;6.10;;
1378;SDS011;683;48.738;9.226;2023-05-20T11:14:50;6.13;;;5.50;;
1378;SDS011;683;48.738;9.226;2023-05-20T11:17:18;6.17;;;5.70;;
1378;SDS011;683;48.738;9.226;2023-05-20T11:19:46;6.80;;;6.10;;
1378;SDS011;683;48.738;9.226;2023-05-20T11:22:14;5.83;;;5.33;;
1378;SDS011;683;48.738;9.226;2023-05-20T11:24:41;6.13;;;4.93;;
1378;SDS011;683;48.738;9.226;2023-05-20T11:27:10;6.13;;;5.60;;
1378;SDS011;683;48.738;9.226;2023-05-20T11:29:37;5.50;;;5.07;;
1378;SDS011;683;48.738;9.226;2023-05-20T11:32:06;12.33;;;5.60;;
1378;SDS011;683;48.738;9.226;2023-05-20T11:34:34;4.70;;;4.40;;
1378;SDS011;683;48.738;9.226;2023-05-20T11:37:05;5.57;;;5.10;;
1378;SDS011;683;48.738;9.226;2023-05-20T11:39:33;6.33;;;5.83;;
1378;SDS011;683;48.738;9.226;2023-05-20T11:42:00;5.33;;;4.83;;
1378;SDS011;683;48.738;9.226;2023-05-20T11:44:31;4.87;;;4.57;;
1378;SDS011;683;48.738;9.226;2023-05-20T11:47:00;5.63;;;4.33;;
1378;SDS011;683;48.738;9.226;2023-05-20T11:49:27;4.97;;;4.00;;
1378;SDS011;683;48.738;9.226;2023-05-20T11:51:55;10.30;;;4.90;;
1378;SDS011;683;48.738;9.226;2023-05-20T11:54:23;5.40;;;5.00;;
1378;SDS011;683;48.738;9.226;2023-05-20T11:56:52;5.23;;;4.83;;
1378;SDS011;683;48.738;9.226;2023-05-20T11:59:20;4.73;;;4.33;;
1378;SDS011;683;48.738;9.226;2023-05-20T12:01:51;4.60;;;4.30;;
1378;SDS011;683;48.738;9.226;2023-05-20T12:04:19;4.67;;;4.30;;
1378;SDS011;683;48.738;9.226;2023-05-20T12:06:46;5.20;;;4.80;;
1378;SDS011;683;48.738;9.226;2023-05-20T12:09:14;4.97;;;4.57;;
1378;SDS011;683;48.738;9.226;2023-05-20T12:11:41;5.37;;;4.97;;
1378;SDS011;683;48.738;9.226;2023-05-20T12:14:10;7.77;;;4.57;;
1378;SDS011;683;48.738;9.226;2023-05-20T12:16:37;5.00;;;4.70;;
1378;SDS011;683;48.738;9.226;2023-05-20T12:19:06;6.20;;;5.03;;
1378;SDS011;683;48.738;9.226;2023-05-20T12:21:34;5.00;;;4.60;;
1378;SDS011;683;48.738;9.226;2023-05-20T12:24:01;4.40;;;4.10;;
1378;SDS011;683;48.738;9.226;2023-05-20T12:26:31;4.03;;;3.73;;
1378;SDS011;683;48.738;9.226;2023-05-20T12:28:59;4.27;;;3.80;;
1378;SDS011;683;48.738;9.226;2023-05-20T12:31:27;5.23;;;4.83;;
1378;SDS011;683;48.738;9.226;2023-05-20T12:33:54;4.90;;;4.50;;
1378;SDS011;683;48.738;9.226;2023-05-20T12:36:23;4.50;;;4.10;;
1378;SDS011;683;48.738;9.226;2023-05-20T12:38:51;4.80;;;4.40;;
1378;SDS011;683;48.738;9.226;2023-05-20T12:41:18;4.77;;;4.37;;
1378;SDS011;683;48.738;9.226;2023-05-20T12:43:46;5.27;;;4.77;;
1378;SDS011;683;48.738;9.226;2023-05-20T12:46:13;5.20;;;4.70;;
1378;SDS011;683;48.738;9.226;2023-05-20T12:48:40;4.43;;;4.13;;
1378;SDS011;683;48.738;9.226;2023-05-20T12:51:08;7.47;;;4.67;;
1378;SDS011;683;48.738;9.226;2023-05-20T12:53:36;4.30;;;4.00;;
1378;SDS011;683;48.738;9.226;2023-05-20T12:56:04;4.90;;;4.50;;
1378;SDS011;683;48.738;9.226;2023-05-20T12:58:31;4.57;;;4.27;;
1378;SDS011;683;48.738;9.226;2023-05-20T13:00:59;4.37;;;4.07;;
1378;SDS011;683;48.738;9.226;2023-05-20T13:03:26;4.83;;;4.53;;
1378;SDS011;683;48.738;9.226;2023-05-20T13:05:53;5.00;;;4.20;;
1378;SDS011;683;48.738;9.226;2023-05-20T13:08:21;5.63;;;5.07;;
1378;SDS011;683;48.738;9.226;2023-05-20T13:10:50;4.77;;;4.37;;
1378;SDS011;683;48.738;9.226;2023-05-20T13:13:17;4.37;;;4.07;;
1378;SDS011;683;48.738;9.226;2023-05-20T13:15:46;4.90;;;4.50;;
1378;SDS011;683;48.738;9.226;2023-05-20T13:18:14;5.80;;;3.77;;
1378;SDS011;683;48.738;9.226;2023-05-20T13:20:42;4.57;;;4.17;;
1378;SDS011;683;48.738;9.226;2023-05-20T13:23:09;5.00;;;4.70;;
1378;SDS011;683;48.738;9.226;2023-05-20T13:25:37;4.43;;;4.03;;
1378;SDS011;683;48.738;9.226;2023-05-20T13:28:06;4.20;;;3.90;;
1378;SDS011;683;48.738;9.226;2023-05-20T13:30:34;3.93;;;3.73;;
1378;SDS011;683;48.738;9.226;2023-05-20T13:33:02;4.87;;;4.47;;
1378;SDS011;683;48.738;9.226;2023-05-20T13:35:29;4.60;;;4.30;;
1378;SDS011;683;48.738;9.226;2023-05-20T13:37:56;4.57;;;4.27;;
1378;SDS011;683;48.738;9.226;2023-05-20T13:40:24;4.77;;;4.47;;
1378;SDS011;683;48.738;9.226;2023-05-20T13:42:51;4.07;;;3.77;;
1378;SDS011;683;48.738;9.226;2023-05-20T13:45:21;7.73;;;4.10;;
1378;SDS011;683;48.738;9.226;2023-05-20T13:47:48;4.57;;;4.17;;
1378;SDS011;683;48.738;9.226;2023-05-20T13:50:15;4.87;;;4.47;;
1378;SDS011;683;48.738;9.226;2023-05-20T13:52:43;11.63;;;4.57;;
1378;SDS011;683;48.738;9.226;2023-05-20T13:55:10;4.40;;;4.00;;
1378;SDS011;683;48.738;9.226;2023-05-20T13:57:37;4.73;;;4.43;;
1378;SDS011;683;48.738;9.226;2023-05-20T14:00:05;4.17;;;3.87;;
1378;SDS011;683;48.738;9.226;2023-05-20T14:02:35;4.30;;;3.90;;
1378;SDS011;683;48.738;9.226;2023-05-20T14:05:04;3.93;;;3.70;;
1378;SDS011;683;48.738;9.226;2023-05-20T14:07:32;4.60;;;4.30;;
1378;SDS011;683;48.738;9.226;2023-05-20T14:10:00;13.10;;;4.50;;
1378;SDS011;683;48.738;9.226;2023-05-20T14:12:27;4.60;;;4.30;;
1378;SDS011;683;48.738;9.226;2023-05-20T14:14:55;4.30;;;4.00;;
1378;SDS011;683;48.738;9.226;2023-05-20T14:17:22;5.13;;;4.73;;
1378;SDS011;683;48.738;9.226;2023-05-20T14:19:51;4.37;;;4.00;;
1378;SDS011;683;48.738;9.226;2023-05-20T14:22:18;4.13;;;3.77;;
1378;SDS011;683;48.738;9.226;2023-05-20T14:24:46;4.07;;;3.77;;
1378;SDS011;683;48.738;9.226;2023-05-20T14:27:13;4.10;;;3.80;;
1378;SDS011;683;48.738;9.226;2023-05-20T14:29:41;3.97;;;3.77;;
1378;SDS011;683;48.738;9.226;2023-05-20T14:32:08;3.70;;;3.50;;
1378;SDS011;683;48.738;9.226;2023-05-20T14:34:37;4.07;;;3.77;;
1378;SDS011;683;48.738;9.226;2023-05-20T14:37:06;6.80;;;3.90;;
1378;SDS011;683;48.738;9.226;2023-05-20T14:39:34;4.57;;;4.17;;
1378;SDS011;683;48.738;9.226;2023-05-20T14:42:01;4.13;;;3.80;;
1378;SDS011;683;48.738;9.226;2023-05-20T14:44:29;5.47;;;3.60;;
1378;SDS011;683;48.738;9.226;2023-05-20T14:46:56;5.20;;;4.60;;
1378;SDS011;683;48.738;9.226;2023-05-20T14:49:24;4.43;;;4.03;;
1378;SDS011;683;48.738;9.226;2023-05-20T14:51:51;4.17;;;3.80;;
1378;SDS011;683;48.738;9.226;2023-05-20T14:54:20;4.93;;;4.63;;
1378;SDS011;683;48.738;9.226;2023-05-20T14:56:49;5.10;;;4.70;;
1378;SDS011;683;48.738;9.226;2023-05-20T14:59:17;4.60;;;4.20;;
1378;SDS011;683;48.738;9.226;2023-05-20T15:01:44;4.33;;;4.03;;
1378;SDS011;683;48.738;9.226;2023-05-20T15:04:12;4.30;;;4.00;;
1378;SDS011;683;48.738;9.226;2023-05-20T15:06:39;4.20;;;3.90;;
1378;SDS011;683;48.738;9.226;2023-05-20T15:09:06;3.87;;;3.57;;
1378;SDS011;683;48.738;9.226;2023-05-20T15:11:35;3.90;;;3.60;;
1378;SDS011;683;48.738;9.226;2023-05-20T15:14:03;3.80;;;3.50;;
1378;SDS011;683;48.738;9.226;2023-05-20T15:16:30;4.33;;;4.03;;
1378;SDS011;683;48.738;9.226;2023-05-20T15:18:57;4.40;;;4.00;;
1378;SDS011;683;48.738;9.226;2023-05-20T15:21:25;5.60;;;3.83;;
1378;SDS011;683;48.738;9.226;2023-05-20T15:23:52;4.30;;;3.90;;
1378;SDS011;683;48.738;9.226;2023-05-20T15:26:20;4.47;;;4.10;;
1378;SDS011;683;48.738;9.226;2023-05-20T15:28:49;4.63;;;4.23;;
1378;SDS011;683;48.738;9.226;2023-05-20T15:31:16;3.90;;;3.60;;
1378;SDS011;683;48.738;9.226;2023-05-20T15:33:44;6.30;;;3.80;;
1378;SDS011;683;48.738;9.226;2023-05-20T15:36:11;4.07;;;3.77;;
1378;SDS011;683;48.738;9.226;2023-05-20T15:38:38;4.90;;;4.50;;